sensor_id;sensor_type;location;lat;lon;timestamp;P1;durP1;ratioP1;P2;durP2;ratioP2
23802;SDS011;12082;51.786;6.018;2022-07-29T00:00:34;3.07;;;1.50;;
23802;SDS011;12082;51.786;6.018;2022-07-29T00:03:01;1.87;;;1.27;;
23802;SDS011;12082;51.786;6.018;2022-07-29T00:05:27;2.40;;;1.60;;
23802;SDS011;12082;51.786;6.018;2022-07-29T00:07:52;3.43;;;1.60;;
23802;SDS011;12082;51.786;6.018;2022-07-29T00:10:18;4.27;;;1.83;;
23802;SDS011;12082;51.786;6.018;2022-07-29T00:12:44;2.50;;;2.07;;
23802;SDS011;12082;51.786;6.018;2022-07-29T00:15:09;4.87;;;1.50;;
23802;SDS011;12082;51.786;6.018;2022-07-29T00:17:35;1.57;;;1.43;;
23802;SDS011;12082;51.786;6.018;2022-07-29T00:20:01;4.73;;;1.90;;
23802;SDS011;12082;51.786;6.018;2022-07-29T00:22:27;3.27;;;1.50;;
23802;SDS011;12082;51.786;6.018;2022-07-29T00:24:52;3.47;;;2.03;;
23802;SDS011;12082;51.786;6.018;2022-07-29T00:27:18;3.40;;;1.77;;
23802;SDS011;12082;51.786;6.018;2022-07-29T00:29:43;3.70;;;1.73;;
23802;SDS011;12082;51.786;6.018;2022-07-29T00:32:09;1.77;;;1.40;;
23802;SDS011;12082;51.786;6.018;2022-07-29T00:34:34;3.47;;;1.90;;
23802;SDS011;12082;51.786;6.018;2022-07-29T00:37:18;7.40;;;1.73;;
23802;SDS011;12082;51.786;6.018;2022-07-29T00:39:44;2.87;;;1.67;;
23802;SDS011;12082;51.786;6.018;2022-07-29T00:42:10;3.27;;;1.70;;
23802;SDS011;12082;51.786;6.018;2022-07-29T00:44:36;1.97;;;1.87;;
23802;SDS011;12082;51.786;6.018;2022-07-29T00:47:06;2.47;;;1.83;;
23802;SDS011;12082;51.786;6.018;2022-07-29T00:49:32;2.10;;;1.77;;
23802;SDS011;12082;51.786;6.018;2022-07-29T00:52:03;4.20;;;1.73;;
23802;SDS011;12082;51.786;6.018;2022-07-29T00:54:29;2.00;;;1.67;;
23802;SDS011;12082;51.786;6.018;2022-07-29T00:56:57;2.17;;;1.20;;
23802;SDS011;12082;51.786;6.018;2022-07-29T00:59:23;3.20;;;1.70;;
23802;SDS011;12082;51.786;6.018;2022-07-29T01:01:49;3.20;;;1.80;;
23802;SDS011;12082;51.786;6.018;2022-07-29T01:04:15;4.17;;;1.87;;
23802;SDS011;12082;51.786;6.018;2022-07-29T01:06:41;3.47;;;1.50;;
23802;SDS011;12082;51.786;6.018;2022-07-29T01:09:07;3.13;;;1.93;;
23802;SDS011;12082;51.786;6.018;2022-07-29T01:11:33;3.60;;;1.60;;
23802;SDS011;12082;51.786;6.018;2022-07-29T01:14:01;3.27;;;1.67;;
23802;SDS011;12082;51.786;6.018;2022-07-29T01:16:30;5.33;;;1.80;;
23802;SDS011;12082;51.786;6.018;2022-07-29T01:19:04;1.80;;;1.50;;
23802;SDS011;12082;51.786;6.018;2022-07-29T01:21:51;1.93;;;1.63;;
23802;SDS011;12082;51.786;6.018;2022-07-29T01:26:58;1.83;;;1.73;;
23802;SDS011;12082;51.786;6.018;2022-07-29T01:29:44;3.03;;;1.90;;
23802;SDS011;12082;51.786;6.018;2022-07-29T01:32:12;5.00;;;1.90;;
23802;SDS011;12082;51.786;6.018;2022-07-29T01:40:08;2.97;;;2.30;;
23802;SDS011;12082;51.786;6.018;2022-07-29T01:42:44;2.00;;;1.80;;
23802;SDS011;12082;51.786;6.018;2022-07-29T01:47:40;5.57;;;1.87;;
23802;SDS011;12082;51.786;6.018;2022-07-29T01:50:10;2.43;;;1.77;;
23802;SDS011;12082;51.786;6.018;2022-07-29T01:52:46;3.73;;;1.50;;
23802;SDS011;12082;51.786;6.018;2022-07-29T01:55:17;2.63;;;1.93;;
23802;SDS011;12082;51.786;6.018;2022-07-29T01:57:47;3.60;;;1.90;;
23802;SDS011;12082;51.786;6.018;2022-07-29T02:00:15;3.07;;;1.57;;
23802;SDS011;12082;51.786;6.018;2022-07-29T02:02:42;4.03;;;1.50;;
23802;SDS011;12082;51.786;6.018;2022-07-29T02:05:10;8.50;;;2.23;;
23802;SDS011;12082;51.786;6.018;2022-07-29T02:07:40;4.60;;;2.40;;
23802;SDS011;12082;51.786;6.018;2022-07-29T02:10:07;5.53;;;2.57;;
23802;SDS011;12082;51.786;6.018;2022-07-29T02:12:34;4.40;;;2.00;;
23802;SDS011;12082;51.786;6.018;2022-07-29T02:15:01;4.80;;;1.73;;
23802;SDS011;12082;51.786;6.018;2022-07-29T02:17:31;3.77;;;2.30;;
23802;SDS011;12082;51.786;6.018;2022-07-29T02:20:00;2.70;;;2.00;;
23802;SDS011;12082;51.786;6.018;2022-07-29T02:22:29;6.90;;;2.53;;
23802;SDS011;12082;51.786;6.018;2022-07-29T02:24:58;2.47;;;2.00;;
23802;SDS011;12082;51.786;6.018;2022-07-29T02:27:25;3.10;;;2.00;;
23802;SDS011;12082;51.786;6.018;2022-07-29T02:29:53;3.73;;;2.47;;
23802;SDS011;12082;51.786;6.018;2022-07-29T02:32:22;6.73;;;2.70;;
23802;SDS011;12082;51.786;6.018;2022-07-29T02:34:49;4.07;;;2.53;;
23802;SDS011;12082;51.786;6.018;2022-07-29T02:37:16;6.07;;;2.87;;
23802;SDS011;12082;51.786;6.018;2022-07-29T02:39:43;5.17;;;3.03;;
23802;SDS011;12082;51.786;6.018;2022-07-29T02:42:12;5.53;;;2.77;;
23802;SDS011;12082;51.786;6.018;2022-07-29T02:44:40;4.20;;;3.03;;
23802;SDS011;12082;51.786;6.018;2022-07-29T02:50:50;3.53;;;2.73;;
23802;SDS011;12082;51.786;6.018;2022-07-29T02:53:02;6.77;;;3.83;;
23802;SDS011;12082;51.786;6.018;2022-07-29T02:55:51;5.70;;;3.47;;
23802;SDS011;12082;51.786;6.018;2022-07-29T02:58:23;6.23;;;4.47;;
23802;SDS011;12082;51.786;6.018;2022-07-29T03:00:53;4.27;;;3.87;;
23802;SDS011;12082;51.786;6.018;2022-07-29T03:03:22;5.20;;;4.60;;
23802;SDS011;12082;51.786;6.018;2022-07-29T03:05:56;7.93;;;5.80;;
23802;SDS011;12082;51.786;6.018;2022-07-29T03:08:24;8.13;;;5.50;;
23802;SDS011;12082;51.786;6.018;2022-07-29T03:10:51;7.23;;;5.30;;
23802;SDS011;12082;51.786;6.018;2022-07-29T03:13:18;6.50;;;5.80;;
23802;SDS011;12082;51.786;6.018;2022-07-29T03:15:44;7.67;;;5.47;;
23802;SDS011;12082;51.786;6.018;2022-07-29T03:18:10;7.03;;;5.50;;
23802;SDS011;12082;51.786;6.018;2022-07-29T03:20:37;8.10;;;4.90;;
23802;SDS011;12082;51.786;6.018;2022-07-29T03:23:03;7.87;;;5.57;;
23802;SDS011;12082;51.786;6.018;2022-07-29T03:25:29;7.10;;;5.60;;
23802;SDS011;12082;51.786;6.018;2022-07-29T03:27:55;13.43;;;6.47;;
23802;SDS011;12082;51.786;6.018;2022-07-29T03:30:21;8.07;;;6.90;;
23802;SDS011;12082;51.786;6.018;2022-07-29T03:32:48;7.37;;;5.73;;
23802;SDS011;12082;51.786;6.018;2022-07-29T03:35:14;7.97;;;5.57;;
23802;SDS011;12082;51.786;6.018;2022-07-29T03:37:41;6.53;;;5.07;;
23802;SDS011;12082;51.786;6.018;2022-07-29T03:40:08;7.73;;;5.67;;
23802;SDS011;12082;51.786;6.018;2022-07-29T03:42:36;11.07;;;5.73;;
23802;SDS011;12082;51.786;6.018;2022-07-29T03:45:05;7.10;;;5.47;;
23802;SDS011;12082;51.786;6.018;2022-07-29T03:47:33;7.23;;;5.43;;
23802;SDS011;12082;51.786;6.018;2022-07-29T03:50:06;9.67;;;6.37;;
23802;SDS011;12082;51.786;6.018;2022-07-29T03:52:33;8.60;;;6.23;;
23802;SDS011;12082;51.786;6.018;2022-07-29T03:55:00;7.03;;;6.27;;
23802;SDS011;12082;51.786;6.018;2022-07-29T03:57:27;7.23;;;5.53;;
23802;SDS011;12082;51.786;6.018;2022-07-29T03:59:55;10.67;;;6.97;;
23802;SDS011;12082;51.786;6.018;2022-07-29T04:02:21;6.87;;;5.90;;
23802;SDS011;12082;51.786;6.018;2022-07-29T04:04:47;7.43;;;6.63;;
23802;SDS011;12082;51.786;6.018;2022-07-29T04:07:13;9.10;;;6.57;;
23802;SDS011;12082;51.786;6.018;2022-07-29T04:09:40;10.97;;;7.63;;
23802;SDS011;12082;51.786;6.018;2022-07-29T04:12:06;9.90;;;7.57;;
23802;SDS011;12082;51.786;6.018;2022-07-29T04:14:32;12.40;;;7.40;;
23802;SDS011;12082;51.786;6.018;2022-07-29T04:16:58;11.37;;;8.57;;
23802;SDS011;12082;51.786;6.018;2022-07-29T04:19:25;10.33;;;7.57;;
23802;SDS011;12082;51.786;6.018;2022-07-29T04:21:50;7.83;;;6.73;;
23802;SDS011;12082;51.786;6.018;2022-07-29T04:24:16;13.60;;;6.93;;
23802;SDS011;12082;51.786;6.018;2022-07-29T04:26:42;9.33;;;7.20;;
23802;SDS011;12082;51.786;6.018;2022-07-29T04:29:08;8.97;;;6.60;;
23802;SDS011;12082;51.786;6.018;2022-07-29T04:31:33;7.53;;;6.73;;
23802;SDS011;12082;51.786;6.018;2022-07-29T04:33:59;8.23;;;6.63;;
23802;SDS011;12082;51.786;6.018;2022-07-29T04:36:24;8.80;;;6.67;;
23802;SDS011;12082;51.786;6.018;2022-07-29T04:38:50;6.93;;;6.30;;
23802;SDS011;12082;51.786;6.018;2022-07-29T04:41:16;9.03;;;7.40;;
23802;SDS011;12082;51.786;6.018;2022-07-29T04:43:41;9.47;;;7.63;;
23802;SDS011;12082;51.786;6.018;2022-07-29T04:46:07;8.97;;;7.77;;
23802;SDS011;12082;51.786;6.018;2022-07-29T04:48:32;11.93;;;8.30;;
23802;SDS011;12082;51.786;6.018;2022-07-29T04:50:58;8.57;;;7.43;;
23802;SDS011;12082;51.786;6.018;2022-07-29T04:53:25;9.23;;;6.90;;
23802;SDS011;12082;51.786;6.018;2022-07-29T04:55:51;9.07;;;7.03;;
23802;SDS011;12082;51.786;6.018;2022-07-29T04:58:17;7.87;;;6.43;;
23802;SDS011;12082;51.786;6.018;2022-07-29T05:00:42;10.27;;;7.70;;
23802;SDS011;12082;51.786;6.018;2022-07-29T05:03:08;9.00;;;6.60;;
23802;SDS011;12082;51.786;6.018;2022-07-29T05:05:34;8.10;;;6.80;;
23802;SDS011;12082;51.786;6.018;2022-07-29T05:07:59;9.03;;;6.43;;
23802;SDS011;12082;51.786;6.018;2022-07-29T05:10:25;7.83;;;7.03;;
23802;SDS011;12082;51.786;6.018;2022-07-29T05:12:51;10.13;;;6.80;;
23802;SDS011;12082;51.786;6.018;2022-07-29T05:15:17;8.27;;;6.90;;
23802;SDS011;12082;51.786;6.018;2022-07-29T05:17:43;9.27;;;7.03;;
23802;SDS011;12082;51.786;6.018;2022-07-29T05:20:09;8.67;;;7.27;;
23802;SDS011;12082;51.786;6.018;2022-07-29T05:22:35;9.70;;;6.93;;
23802;SDS011;12082;51.786;6.018;2022-07-29T05:25:01;8.30;;;7.03;;
23802;SDS011;12082;51.786;6.018;2022-07-29T05:27:27;9.43;;;6.27;;
23802;SDS011;12082;51.786;6.018;2022-07-29T05:29:53;12.07;;;7.43;;
23802;SDS011;12082;51.786;6.018;2022-07-29T05:32:18;7.67;;;6.20;;
23802;SDS011;12082;51.786;6.018;2022-07-29T05:34:44;8.20;;;6.37;;
23802;SDS011;12082;51.786;6.018;2022-07-29T05:37:09;10.57;;;7.60;;
23802;SDS011;12082;51.786;6.018;2022-07-29T05:39:35;8.87;;;7.80;;
23802;SDS011;12082;51.786;6.018;2022-07-29T05:42:01;9.40;;;6.90;;
23802;SDS011;12082;51.786;6.018;2022-07-29T05:44:27;8.53;;;6.87;;
23802;SDS011;12082;51.786;6.018;2022-07-29T05:46:53;10.70;;;7.00;;
23802;SDS011;12082;51.786;6.018;2022-07-29T05:49:18;12.43;;;7.30;;
23802;SDS011;12082;51.786;6.018;2022-07-29T05:51:44;9.07;;;7.50;;
23802;SDS011;12082;51.786;6.018;2022-07-29T05:54:09;8.10;;;7.10;;
23802;SDS011;12082;51.786;6.018;2022-07-29T05:56:36;9.63;;;7.63;;
23802;SDS011;12082;51.786;6.018;2022-07-29T05:59:02;9.67;;;7.77;;
23802;SDS011;12082;51.786;6.018;2022-07-29T06:01:28;11.83;;;8.57;;
23802;SDS011;12082;51.786;6.018;2022-07-29T06:03:53;10.70;;;7.93;;
23802;SDS011;12082;51.786;6.018;2022-07-29T06:06:19;8.07;;;7.27;;
23802;SDS011;12082;51.786;6.018;2022-07-29T06:08:44;9.47;;;8.47;;
23802;SDS011;12082;51.786;6.018;2022-07-29T06:11:10;12.43;;;8.60;;
23802;SDS011;12082;51.786;6.018;2022-07-29T06:13:36;12.13;;;8.90;;
23802;SDS011;12082;51.786;6.018;2022-07-29T06:16:01;12.60;;;9.17;;
23802;SDS011;12082;51.786;6.018;2022-07-29T06:18:27;14.23;;;9.17;;
23802;SDS011;12082;51.786;6.018;2022-07-29T06:20:53;10.93;;;8.77;;
23802;SDS011;12082;51.786;6.018;2022-07-29T06:23:19;14.43;;;9.57;;
23802;SDS011;12082;51.786;6.018;2022-07-29T06:25:45;10.53;;;9.20;;
23802;SDS011;12082;51.786;6.018;2022-07-29T06:28:11;13.23;;;8.67;;
23802;SDS011;12082;51.786;6.018;2022-07-29T06:30:37;9.93;;;8.47;;
23802;SDS011;12082;51.786;6.018;2022-07-29T06:33:04;14.67;;;10.90;;
23802;SDS011;12082;51.786;6.018;2022-07-29T06:35:30;13.20;;;10.03;;
23802;SDS011;12082;51.786;6.018;2022-07-29T06:37:57;10.90;;;8.83;;
23802;SDS011;12082;51.786;6.018;2022-07-29T06:40:23;14.13;;;10.80;;
23802;SDS011;12082;51.786;6.018;2022-07-29T06:43:07;12.77;;;8.93;;
23802;SDS011;12082;51.786;6.018;2022-07-29T06:45:36;10.43;;;9.00;;
23802;SDS011;12082;51.786;6.018;2022-07-29T06:48:01;9.57;;;7.73;;
23802;SDS011;12082;51.786;6.018;2022-07-29T06:50:27;8.70;;;6.67;;
23802;SDS011;12082;51.786;6.018;2022-07-29T06:52:52;8.63;;;6.73;;
23802;SDS011;12082;51.786;6.018;2022-07-29T06:55:20;8.63;;;6.63;;
23802;SDS011;12082;51.786;6.018;2022-07-29T06:57:45;7.03;;;5.50;;
23802;SDS011;12082;51.786;6.018;2022-07-29T07:00:11;7.87;;;5.97;;
23802;SDS011;12082;51.786;6.018;2022-07-29T07:02:37;7.93;;;6.13;;
23802;SDS011;12082;51.786;6.018;2022-07-29T07:05:03;8.87;;;6.37;;
23802;SDS011;12082;51.786;6.018;2022-07-29T07:07:30;6.73;;;5.97;;
23802;SDS011;12082;51.786;6.018;2022-07-29T07:09:56;10.83;;;7.40;;
23802;SDS011;12082;51.786;6.018;2022-07-29T07:12:21;8.80;;;7.60;;
23802;SDS011;12082;51.786;6.018;2022-07-29T07:14:47;8.50;;;6.87;;
23802;SDS011;12082;51.786;6.018;2022-07-29T07:17:13;11.87;;;7.63;;
23802;SDS011;12082;51.786;6.018;2022-07-29T07:19:38;8.43;;;6.93;;
23802;SDS011;12082;51.786;6.018;2022-07-29T07:22:04;12.17;;;7.50;;
23802;SDS011;12082;51.786;6.018;2022-07-29T07:24:29;9.63;;;7.63;;
23802;SDS011;12082;51.786;6.018;2022-07-29T07:26:55;7.40;;;5.87;;
23802;SDS011;12082;51.786;6.018;2022-07-29T07:29:21;11.90;;;7.67;;
23802;SDS011;12082;51.786;6.018;2022-07-29T07:31:46;8.07;;;6.63;;
23802;SDS011;12082;51.786;6.018;2022-07-29T07:34:12;8.00;;;6.77;;
23802;SDS011;12082;51.786;6.018;2022-07-29T07:36:37;8.60;;;7.30;;
23802;SDS011;12082;51.786;6.018;2022-07-29T07:39:03;10.23;;;7.73;;
23802;SDS011;12082;51.786;6.018;2022-07-29T07:41:30;7.37;;;6.53;;
23802;SDS011;12082;51.786;6.018;2022-07-29T07:43:55;13.47;;;7.90;;
23802;SDS011;12082;51.786;6.018;2022-07-29T07:46:21;9.37;;;6.87;;
23802;SDS011;12082;51.786;6.018;2022-07-29T07:48:46;7.67;;;5.90;;
23802;SDS011;12082;51.786;6.018;2022-07-29T07:51:12;10.60;;;8.53;;
23802;SDS011;12082;51.786;6.018;2022-07-29T07:53:38;11.57;;;7.63;;
23802;SDS011;12082;51.786;6.018;2022-07-29T07:56:03;13.10;;;8.17;;
23802;SDS011;12082;51.786;6.018;2022-07-29T07:58:31;12.47;;;7.93;;
23802;SDS011;12082;51.786;6.018;2022-07-29T08:00:56;11.67;;;6.87;;
23802;SDS011;12082;51.786;6.018;2022-07-29T08:03:22;9.83;;;7.37;;
23802;SDS011;12082;51.786;6.018;2022-07-29T08:05:48;11.57;;;8.10;;
23802;SDS011;12082;51.786;6.018;2022-07-29T08:08:15;17.03;;;9.37;;
23802;SDS011;12082;51.786;6.018;2022-07-29T08:10:41;13.70;;;8.70;;
23802;SDS011;12082;51.786;6.018;2022-07-29T08:13:19;16.77;;;8.23;;
23802;SDS011;12082;51.786;6.018;2022-07-29T08:15:46;14.60;;;9.57;;
23802;SDS011;12082;51.786;6.018;2022-07-29T08:18:12;10.00;;;7.10;;
23802;SDS011;12082;51.786;6.018;2022-07-29T08:20:37;8.17;;;6.10;;
23802;SDS011;12082;51.786;6.018;2022-07-29T08:23:04;9.27;;;6.73;;
23802;SDS011;12082;51.786;6.018;2022-07-29T08:25:33;9.17;;;7.47;;
23802;SDS011;12082;51.786;6.018;2022-07-29T08:28:00;9.53;;;7.23;;
23802;SDS011;12082;51.786;6.018;2022-07-29T08:30:26;9.80;;;7.50;;
23802;SDS011;12082;51.786;6.018;2022-07-29T08:32:51;11.60;;;7.40;;
23802;SDS011;12082;51.786;6.018;2022-07-29T08:35:18;14.07;;;8.80;;
23802;SDS011;12082;51.786;6.018;2022-07-29T08:37:44;9.47;;;7.97;;
23802;SDS011;12082;51.786;6.018;2022-07-29T08:40:10;10.27;;;7.30;;
23802;SDS011;12082;51.786;6.018;2022-07-29T08:42:37;12.63;;;7.87;;
23802;SDS011;12082;51.786;6.018;2022-07-29T08:45:03;12.83;;;9.60;;
23802;SDS011;12082;51.786;6.018;2022-07-29T08:47:29;10.53;;;9.27;;
23802;SDS011;12082;51.786;6.018;2022-07-29T08:49:55;13.87;;;10.83;;
23802;SDS011;12082;51.786;6.018;2022-07-29T08:52:21;10.90;;;8.60;;
23802;SDS011;12082;51.786;6.018;2022-07-29T08:54:49;15.13;;;9.50;;
23802;SDS011;12082;51.786;6.018;2022-07-29T08:57:15;15.23;;;10.50;;
23802;SDS011;12082;51.786;6.018;2022-07-29T08:59:42;13.30;;;11.40;;
23802;SDS011;12082;51.786;6.018;2022-07-29T09:02:12;15.83;;;10.97;;
23802;SDS011;12082;51.786;6.018;2022-07-29T09:04:47;12.47;;;8.50;;
23802;SDS011;12082;51.786;6.018;2022-07-29T09:07:17;11.43;;;9.37;;
23802;SDS011;12082;51.786;6.018;2022-07-29T09:09:44;13.73;;;8.23;;
23802;SDS011;12082;51.786;6.018;2022-07-29T09:12:10;11.60;;;7.90;;
23802;SDS011;12082;51.786;6.018;2022-07-29T09:14:37;10.90;;;6.70;;
23802;SDS011;12082;51.786;6.018;2022-07-29T09:17:03;6.53;;;5.37;;
23802;SDS011;12082;51.786;6.018;2022-07-29T09:19:30;6.77;;;5.63;;
23802;SDS011;12082;51.786;6.018;2022-07-29T09:21:58;8.00;;;5.77;;
23802;SDS011;12082;51.786;6.018;2022-07-29T09:27:24;5.77;;;4.30;;
23802;SDS011;12082;51.786;6.018;2022-07-29T09:32:25;14.13;;;4.77;;
23802;SDS011;12082;51.786;6.018;2022-07-29T09:34:54;10.33;;;4.17;;
23802;SDS011;12082;51.786;6.018;2022-07-29T09:37:44;7.37;;;4.63;;
23802;SDS011;12082;51.786;6.018;2022-07-29T09:40:14;6.93;;;4.20;;
23802;SDS011;12082;51.786;6.018;2022-07-29T09:42:47;6.93;;;5.00;;
23802;SDS011;12082;51.786;6.018;2022-07-29T09:45:25;5.87;;;4.57;;
23802;SDS011;12082;51.786;6.018;2022-07-29T09:47:52;6.47;;;4.50;;
23802;SDS011;12082;51.786;6.018;2022-07-29T09:50:19;6.77;;;3.90;;
23802;SDS011;12082;51.786;6.018;2022-07-29T09:52:52;5.37;;;4.20;;
23802;SDS011;12082;51.786;6.018;2022-07-29T09:55:18;7.53;;;3.90;;
23802;SDS011;12082;51.786;6.018;2022-07-29T09:57:45;5.10;;;3.10;;
23802;SDS011;12082;51.786;6.018;2022-07-29T10:00:16;7.33;;;3.23;;
23802;SDS011;12082;51.786;6.018;2022-07-29T10:02:43;7.30;;;3.17;;
23802;SDS011;12082;51.786;6.018;2022-07-29T10:07:52;8.77;;;3.53;;
23802;SDS011;12082;51.786;6.018;2022-07-29T10:10:33;5.30;;;3.20;;
23802;SDS011;12082;51.786;6.018;2022-07-29T10:13:02;8.60;;;3.70;;
23802;SDS011;12082;51.786;6.018;2022-07-29T10:15:30;3.70;;;3.20;;
23802;SDS011;12082;51.786;6.018;2022-07-29T10:17:57;7.43;;;3.80;;
23802;SDS011;12082;51.786;6.018;2022-07-29T10:20:25;7.23;;;4.07;;
23802;SDS011;12082;51.786;6.018;2022-07-29T10:22:52;7.97;;;4.10;;
23802;SDS011;12082;51.786;6.018;2022-07-29T10:25:18;6.40;;;3.10;;
23802;SDS011;12082;51.786;6.018;2022-07-29T10:27:45;7.67;;;4.37;;
23802;SDS011;12082;51.786;6.018;2022-07-29T10:30:12;8.07;;;3.13;;
23802;SDS011;12082;51.786;6.018;2022-07-29T10:44:18;8.23;;;3.33;;
23802;SDS011;12082;51.786;6.018;2022-07-29T10:46:49;9.27;;;3.83;;
23802;SDS011;12082;51.786;6.018;2022-07-29T10:49:16;7.70;;;4.20;;
23802;SDS011;12082;51.786;6.018;2022-07-29T10:52:05;6.87;;;3.40;;
23802;SDS011;12082;51.786;6.018;2022-07-29T11:04:58;8.87;;;3.20;;
23802;SDS011;12082;51.786;6.018;2022-07-29T11:07:31;5.57;;;3.43;;
23802;SDS011;12082;51.786;6.018;2022-07-29T11:15:07;4.17;;;3.17;;
23802;SDS011;12082;51.786;6.018;2022-07-29T11:31:39;5.50;;;3.60;;
23802;SDS011;12082;51.786;6.018;2022-07-29T11:34:21;5.93;;;2.70;;
23802;SDS011;12082;51.786;6.018;2022-07-29T11:39:38;7.10;;;3.17;;
23802;SDS011;12082;51.786;6.018;2022-07-29T11:47:46;5.10;;;3.43;;
23802;SDS011;12082;51.786;6.018;2022-07-29T11:50:30;5.47;;;2.97;;
23802;SDS011;12082;51.786;6.018;2022-07-29T11:53:01;4.47;;;2.63;;
23802;SDS011;12082;51.786;6.018;2022-07-29T11:55:28;8.63;;;3.23;;
23802;SDS011;12082;51.786;6.018;2022-07-29T11:57:58;11.20;;;3.27;;
23802;SDS011;12082;51.786;6.018;2022-07-29T12:00:31;6.57;;;2.73;;
23802;SDS011;12082;51.786;6.018;2022-07-29T12:03:00;6.37;;;3.27;;
23802;SDS011;12082;51.786;6.018;2022-07-29T12:05:40;4.50;;;3.00;;
23802;SDS011;12082;51.786;6.018;2022-07-29T12:08:21;3.70;;;3.07;;
23802;SDS011;12082;51.786;6.018;2022-07-29T12:10:48;6.97;;;2.53;;
23802;SDS011;12082;51.786;6.018;2022-07-29T12:13:15;6.20;;;2.60;;
23802;SDS011;12082;51.786;6.018;2022-07-29T12:15:42;4.60;;;2.20;;
23802;SDS011;12082;51.786;6.018;2022-07-29T12:18:17;8.83;;;2.40;;
23802;SDS011;12082;51.786;6.018;2022-07-29T12:20:45;4.33;;;2.30;;
23802;SDS011;12082;51.786;6.018;2022-07-29T12:23:11;4.43;;;2.50;;
23802;SDS011;12082;51.786;6.018;2022-07-29T12:25:38;4.00;;;2.70;;
23802;SDS011;12082;51.786;6.018;2022-07-29T12:28:06;3.23;;;2.20;;
23802;SDS011;12082;51.786;6.018;2022-07-29T12:30:36;4.77;;;2.50;;
23802;SDS011;12082;51.786;6.018;2022-07-29T12:33:31;7.67;;;2.63;;
23802;SDS011;12082;51.786;6.018;2022-07-29T12:35:56;3.20;;;2.00;;
23802;SDS011;12082;51.786;6.018;2022-07-29T12:38:24;4.53;;;2.50;;
23802;SDS011;12082;51.786;6.018;2022-07-29T12:40:51;4.37;;;2.30;;
23802;SDS011;12082;51.786;6.018;2022-07-29T12:43:19;6.97;;;2.37;;
23802;SDS011;12082;51.786;6.018;2022-07-29T12:45:47;5.17;;;2.70;;
23802;SDS011;12082;51.786;6.018;2022-07-29T12:48:15;7.17;;;2.30;;
23802;SDS011;12082;51.786;6.018;2022-07-29T12:50:58;3.63;;;2.30;;
23802;SDS011;12082;51.786;6.018;2022-07-29T12:53:26;3.03;;;2.30;;
23802;SDS011;12082;51.786;6.018;2022-07-29T12:55:52;5.97;;;2.30;;
23802;SDS011;12082;51.786;6.018;2022-07-29T12:58:36;4.37;;;2.33;;
23802;SDS011;12082;51.786;6.018;2022-07-29T13:03:50;4.00;;;1.93;;
23802;SDS011;12082;51.786;6.018;2022-07-29T13:06:44;4.17;;;2.90;;
23802;SDS011;12082;51.786;6.018;2022-07-29T13:09:20;5.70;;;2.00;;
23802;SDS011;12082;51.786;6.018;2022-07-29T13:11:49;4.43;;;2.03;;
23802;SDS011;12082;51.786;6.018;2022-07-29T13:19:38;4.17;;;1.97;;
23802;SDS011;12082;51.786;6.018;2022-07-29T13:22:06;4.17;;;2.10;;
23802;SDS011;12082;51.786;6.018;2022-07-29T13:24:51;4.20;;;2.70;;
23802;SDS011;12082;51.786;6.018;2022-07-29T13:27:18;4.27;;;2.63;;
23802;SDS011;12082;51.786;6.018;2022-07-29T13:29:45;4.57;;;1.77;;
23802;SDS011;12082;51.786;6.018;2022-07-29T13:32:11;5.00;;;2.20;;
23802;SDS011;12082;51.786;6.018;2022-07-29T13:34:38;5.27;;;2.20;;
23802;SDS011;12082;51.786;6.018;2022-07-29T13:37:04;7.53;;;2.33;;
23802;SDS011;12082;51.786;6.018;2022-07-29T13:39:29;6.10;;;2.00;;
23802;SDS011;12082;51.786;6.018;2022-07-29T13:41:55;4.97;;;2.33;;
23802;SDS011;12082;51.786;6.018;2022-07-29T13:44:21;3.10;;;2.13;;
23802;SDS011;12082;51.786;6.018;2022-07-29T13:46:46;7.83;;;2.57;;
23802;SDS011;12082;51.786;6.018;2022-07-29T13:49:12;5.43;;;2.53;;
23802;SDS011;12082;51.786;6.018;2022-07-29T13:51:37;4.73;;;2.00;;
23802;SDS011;12082;51.786;6.018;2022-07-29T13:54:03;6.90;;;2.27;;
23802;SDS011;12082;51.786;6.018;2022-07-29T13:56:29;4.57;;;2.30;;
23802;SDS011;12082;51.786;6.018;2022-07-29T13:58:55;5.93;;;2.43;;
23802;SDS011;12082;51.786;6.018;2022-07-29T14:01:22;6.83;;;2.40;;
23802;SDS011;12082;51.786;6.018;2022-07-29T14:03:48;3.70;;;2.43;;
23802;SDS011;12082;51.786;6.018;2022-07-29T14:06:14;5.77;;;2.30;;
23802;SDS011;12082;51.786;6.018;2022-07-29T14:08:39;4.63;;;2.13;;
23802;SDS011;12082;51.786;6.018;2022-07-29T14:11:05;5.13;;;2.37;;
23802;SDS011;12082;51.786;6.018;2022-07-29T14:13:30;5.30;;;2.27;;
23802;SDS011;12082;51.786;6.018;2022-07-29T14:15:56;2.60;;;1.70;;
23802;SDS011;12082;51.786;6.018;2022-07-29T14:18:22;6.13;;;1.80;;
23802;SDS011;12082;51.786;6.018;2022-07-29T14:20:47;5.33;;;2.33;;
23802;SDS011;12082;51.786;6.018;2022-07-29T14:23:13;4.03;;;1.73;;
23802;SDS011;12082;51.786;6.018;2022-07-29T14:25:39;3.70;;;1.47;;
23802;SDS011;12082;51.786;6.018;2022-07-29T14:28:04;4.13;;;2.03;;
23802;SDS011;12082;51.786;6.018;2022-07-29T14:30:30;2.83;;;1.80;;
23802;SDS011;12082;51.786;6.018;2022-07-29T14:32:55;4.30;;;1.73;;
23802;SDS011;12082;51.786;6.018;2022-07-29T14:35:21;2.17;;;1.70;;
23802;SDS011;12082;51.786;6.018;2022-07-29T14:37:47;2.87;;;1.80;;
23802;SDS011;12082;51.786;6.018;2022-07-29T14:40:12;5.70;;;2.00;;
23802;SDS011;12082;51.786;6.018;2022-07-29T14:42:38;2.87;;;1.93;;
23802;SDS011;12082;51.786;6.018;2022-07-29T14:45:04;3.30;;;2.20;;
23802;SDS011;12082;51.786;6.018;2022-07-29T14:47:32;3.40;;;1.60;;
23802;SDS011;12082;51.786;6.018;2022-07-29T14:49:57;3.07;;;1.70;;
23802;SDS011;12082;51.786;6.018;2022-07-29T14:52:23;3.80;;;1.60;;
23802;SDS011;12082;51.786;6.018;2022-07-29T14:54:48;3.57;;;2.13;;
23802;SDS011;12082;51.786;6.018;2022-07-29T14:57:14;2.97;;;1.60;;
23802;SDS011;12082;51.786;6.018;2022-07-29T14:59:40;2.50;;;1.77;;
23802;SDS011;12082;51.786;6.018;2022-07-29T15:02:05;3.30;;;1.60;;
23802;SDS011;12082;51.786;6.018;2022-07-29T15:04:31;4.13;;;1.87;;
23802;SDS011;12082;51.786;6.018;2022-07-29T15:06:56;4.13;;;1.57;;
23802;SDS011;12082;51.786;6.018;2022-07-29T15:09:22;3.60;;;1.60;;
23802;SDS011;12082;51.786;6.018;2022-07-29T15:11:48;4.60;;;1.80;;
23802;SDS011;12082;51.786;6.018;2022-07-29T15:14:14;3.87;;;1.57;;
23802;SDS011;12082;51.786;6.018;2022-07-29T15:16:39;1.77;;;1.50;;
23802;SDS011;12082;51.786;6.018;2022-07-29T15:19:07;3.97;;;1.50;;
23802;SDS011;12082;51.786;6.018;2022-07-29T15:21:33;5.10;;;1.50;;
23802;SDS011;12082;51.786;6.018;2022-07-29T15:23:59;3.13;;;1.40;;
23802;SDS011;12082;51.786;6.018;2022-07-29T15:26:24;4.77;;;1.83;;
23802;SDS011;12082;51.786;6.018;2022-07-29T15:28:50;5.37;;;1.53;;
23802;SDS011;12082;51.786;6.018;2022-07-29T15:31:16;3.67;;;1.50;;
23802;SDS011;12082;51.786;6.018;2022-07-29T15:33:43;3.27;;;1.70;;
23802;SDS011;12082;51.786;6.018;2022-07-29T15:36:09;2.40;;;1.63;;
23802;SDS011;12082;51.786;6.018;2022-07-29T15:38:36;2.67;;;1.77;;
23802;SDS011;12082;51.786;6.018;2022-07-29T15:41:02;1.67;;;1.43;;
23802;SDS011;12082;51.786;6.018;2022-07-29T15:43:28;2.30;;;1.40;;
23802;SDS011;12082;51.786;6.018;2022-07-29T15:45:53;4.17;;;1.37;;
23802;SDS011;12082;51.786;6.018;2022-07-29T15:48:38;2.53;;;1.60;;
23802;SDS011;12082;51.786;6.018;2022-07-29T15:51:04;4.40;;;1.80;;
23802;SDS011;12082;51.786;6.018;2022-07-29T15:53:29;2.93;;;1.57;;
23802;SDS011;12082;51.786;6.018;2022-07-29T15:55:55;6.10;;;2.20;;
23802;SDS011;12082;51.786;6.018;2022-07-29T15:58:20;2.90;;;1.93;;
23802;SDS011;12082;51.786;6.018;2022-07-29T16:00:46;4.93;;;2.03;;
23802;SDS011;12082;51.786;6.018;2022-07-29T16:03:12;6.30;;;1.77;;
23802;SDS011;12082;51.786;6.018;2022-07-29T16:05:38;2.57;;;1.87;;
23802;SDS011;12082;51.786;6.018;2022-07-29T16:08:04;2.37;;;1.70;;